createdAt,value
2019-03-11T00:02:00.048Z,11.57
2019-03-11T00:04:30.531Z,10.10
2019-03-11T00:07:03.543Z,9.67
2019-03-11T00:09:33.920Z,11.50
2019-03-11T00:12:04.544Z,9.03
2019-03-11T00:14:35.386Z,8.77
2019-03-11T00:17:06.119Z,13.50
2019-03-11T00:19:36.723Z,12.67
2019-03-11T00:22:07.515Z,12.23
2019-03-11T00:24:37.963Z,9.40
2019-03-11T00:27:10.972Z,11.67
2019-03-11T00:29:41.325Z,10.03
2019-03-11T00:32:11.875Z,8.10
2019-03-11T00:34:42.287Z,9.67
2019-03-11T00:37:12.835Z,8.97
2019-03-11T00:39:43.659Z,6.43
2019-03-11T00:42:14.119Z,6.53
2019-03-11T00:44:44.638Z,7.60
2019-03-11T00:47:15.309Z,6.60
2019-03-11T00:49:45.880Z,6.00
2019-03-11T00:52:16.348Z,6.00
2019-03-11T00:54:47.026Z,5.27
2019-03-11T00:57:19.274Z,4.00
2019-03-11T00:59:49.985Z,6.07
2019-03-11T01:02:20.405Z,4.53
2019-03-11T01:04:50.766Z,3.20
2019-03-11T01:07:21.349Z,3.50
2019-03-11T01:09:51.798Z,5.97
2019-03-11T01:12:22.188Z,18.80
2019-03-11T01:14:52.725Z,20.57
2019-03-11T01:17:23.108Z,19.83
2019-03-11T01:19:53.435Z,19.07
2019-03-11T01:22:23.917Z,17.27
2019-03-11T01:24:54.349Z,20.43
2019-03-11T01:27:24.720Z,19.10
2019-03-11T01:29:55.129Z,15.80
2019-03-11T01:32:25.605Z,15.50
2019-03-11T01:34:56.059Z,16.20
2019-03-11T01:37:26.546Z,14.53
2019-03-11T01:39:56.973Z,12.83
2019-03-11T01:42:27.428Z,14.17
2019-03-11T01:45:00.446Z,16.97
2019-03-11T01:47:30.797Z,16.60
2019-03-11T01:50:01.226Z,14.67
2019-03-11T01:52:31.772Z,9.00
2019-03-11T01:55:02.219Z,6.53
2019-03-11T01:57:32.438Z,5.00
2019-03-11T02:00:02.764Z,5.33
2019-03-11T02:02:33.265Z,4.33
2019-03-11T02:05:06.255Z,6.83
2019-03-11T02:07:36.857Z,5.93
2019-03-11T02:10:07.972Z,11.87
2019-03-11T02:12:38.545Z,20.87
2019-03-11T02:15:10.347Z,19.57
2019-03-11T02:17:40.891Z,16.13
2019-03-11T02:20:13.250Z,13.47
2019-03-11T02:22:43.775Z,17.97
2019-03-11T02:25:14.899Z,16.77
2019-03-11T02:27:45.400Z,19.37
2019-03-11T02:30:16.319Z,16.63
2019-03-11T02:32:46.853Z,17.90
2019-03-11T02:35:27.303Z,21.73
2019-03-11T02:37:58.189Z,13.67
2019-03-11T02:40:28.795Z,14.03
2019-03-11T02:42:59.275Z,12.93
2019-03-11T02:45:29.646Z,12.00
2019-03-11T02:48:00.290Z,10.63
2019-03-11T02:50:33.810Z,8.10
2019-03-11T02:53:05.236Z,6.93
2019-03-11T02:55:35.681Z,7.10
2019-03-11T02:58:06.229Z,7.43
2019-03-11T03:00:36.721Z,5.07
2019-03-11T03:03:26.210Z,5.03
2019-03-11T03:06:00.736Z,5.87
2019-03-11T03:08:31.355Z,5.80
2019-03-11T03:11:01.883Z,5.90
2019-03-11T03:13:32.304Z,7.83
2019-03-11T03:16:02.752Z,7.03
2019-03-11T03:18:35.617Z,6.57
2019-03-11T03:21:06.077Z,6.27
2019-03-11T03:23:36.549Z,6.63
2019-03-11T03:26:06.984Z,6.23
2019-03-11T03:28:37.443Z,6.80
2019-03-11T03:31:07.925Z,8.03
2019-03-11T03:33:38.337Z,6.07
2019-03-11T03:36:08.887Z,8.03
2019-03-11T03:38:39.247Z,4.97
2019-03-11T03:41:09.778Z,6.63
2019-03-11T03:43:40.222Z,6.23
2019-03-11T03:46:18.835Z,6.17
2019-03-11T03:48:43.150Z,5.87
2019-03-11T03:51:13.649Z,6.17
2019-03-11T03:53:44.190Z,7.93
2019-03-11T03:56:14.612Z,5.87
2019-03-11T03:58:45.106Z,7.37
2019-03-11T04:01:15.600Z,4.47
2019-03-11T04:03:46.056Z,5.57
2019-03-11T04:06:16.603Z,8.87
2019-03-11T04:08:47.105Z,6.67
2019-03-11T04:11:17.685Z,6.60
2019-03-11T04:13:48.135Z,6.67
2019-03-11T04:16:18.650Z,7.47
2019-03-11T04:18:59.278Z,5.70
2019-03-11T04:21:29.888Z,7.50
2019-03-11T04:24:00.355Z,6.13
2019-03-11T04:26:32.091Z,7.63
2019-03-11T04:29:02.663Z,6.97
2019-03-11T04:31:33.230Z,5.77
2019-03-11T04:34:03.568Z,7.27
2019-03-11T04:36:34.025Z,6.07
2019-03-11T04:39:05.730Z,7.30
2019-03-11T04:41:36.223Z,6.00
2019-03-11T04:44:07.078Z,5.53
2019-03-11T04:46:37.713Z,11.47
2019-03-11T04:49:07.995Z,4.93
2019-03-11T04:51:38.359Z,4.80
2019-03-11T04:54:08.927Z,5.70
2019-03-11T04:56:39.426Z,6.17
2019-03-11T04:59:17.245Z,4.87
2019-03-11T05:01:47.822Z,6.47
2019-03-11T05:04:18.396Z,7.63
2019-03-11T05:06:48.778Z,5.77
2019-03-11T05:09:19.183Z,6.30
2019-03-11T05:11:49.589Z,7.87
2019-03-11T05:14:20.117Z,7.33
2019-03-11T05:16:50.608Z,6.70
2019-03-11T05:19:21.417Z,10.77
2019-03-11T05:21:52.226Z,9.47
2019-03-11T05:24:22.829Z,7.70
2019-03-11T05:26:53.358Z,6.37
2019-03-11T05:29:23.921Z,5.03
2019-03-11T05:31:54.402Z,6.00
2019-03-11T05:34:24.773Z,8.10
2019-03-11T05:36:55.453Z,7.27
2019-03-11T05:39:26.008Z,6.20
2019-03-11T05:41:56.719Z,7.57
2019-03-11T05:44:27.132Z,6.83
2019-03-11T05:46:57.745Z,6.17
2019-03-11T05:49:28.512Z,5.80
2019-03-11T05:51:59.213Z,5.03
2019-03-11T05:54:29.603Z,4.83
2019-03-11T05:57:00.202Z,6.33
2019-03-11T05:59:30.700Z,8.83
2019-03-11T06:02:01.150Z,8.50
2019-03-11T06:04:31.966Z,7.13
2019-03-11T06:07:02.473Z,7.57
2019-03-11T06:09:33.001Z,9.13
2019-03-11T06:12:03.306Z,8.17
2019-03-11T06:14:34.064Z,6.00
2019-03-11T06:17:04.514Z,13.47
2019-03-11T06:19:34.942Z,6.23
2019-03-11T06:22:18.059Z,5.63
2019-03-11T06:24:48.651Z,5.27
2019-03-11T06:27:19.071Z,5.90
2019-03-11T06:29:49.345Z,7.40
2019-03-11T06:32:19.767Z,6.77
2019-03-11T06:34:50.298Z,6.17
2019-03-11T06:37:22.489Z,9.20
2019-03-11T06:39:53.218Z,7.90
2019-03-11T06:42:24.037Z,6.23
2019-03-11T06:44:54.508Z,4.83
2019-03-11T06:47:24.957Z,6.13
2019-03-11T06:49:55.517Z,4.67
2019-03-11T06:52:26.126Z,6.40
2019-03-11T06:54:56.751Z,3.87
2019-03-11T06:57:27.263Z,6.07
2019-03-11T07:00:01.396Z,6.63
2019-03-11T07:02:32.027Z,8.20
2019-03-11T07:05:02.933Z,5.23
2019-03-11T07:07:33.374Z,6.20
2019-03-11T07:10:04.314Z,6.87
2019-03-11T07:12:34.805Z,7.43
2019-03-11T07:15:07.818Z,4.80
2019-03-11T07:17:38.147Z,4.00
2019-03-11T07:20:11.493Z,5.53
2019-03-11T07:22:41.999Z,5.53
2019-03-11T07:25:12.380Z,4.97
2019-03-11T07:27:42.715Z,7.33
2019-03-11T07:30:14.015Z,5.20
2019-03-11T07:32:44.454Z,6.13
2019-03-11T07:35:14.816Z,9.73
2019-03-11T07:37:45.474Z,7.90
2019-03-11T07:40:16.116Z,5.23
2019-03-11T07:42:46.751Z,10.37
2019-03-11T07:45:17.389Z,5.03
2019-03-11T07:47:47.723Z,5.30
2019-03-11T07:50:18.824Z,5.23
2019-03-11T07:52:49.385Z,5.93
2019-03-11T07:55:19.726Z,6.10
2019-03-11T07:57:50.159Z,5.07
2019-03-11T08:00:20.496Z,5.63
2019-03-11T08:02:56.636Z,5.90
2019-03-11T08:05:26.777Z,3.57
2019-03-11T08:07:56.869Z,6.13
2019-03-11T08:10:27.117Z,5.03
2019-03-11T08:12:57.524Z,7.20
2019-03-11T08:15:27.428Z,5.30
2019-03-11T08:17:57.301Z,5.43
2019-03-11T08:20:27.493Z,4.47
2019-03-11T08:22:57.609Z,5.17
2019-03-11T08:25:28.024Z,4.90
2019-03-11T08:27:58.234Z,4.13
2019-03-11T08:30:28.149Z,5.80
2019-03-11T08:32:58.524Z,4.97
2019-03-11T08:35:28.776Z,5.10
2019-03-11T08:38:04.579Z,4.20
2019-03-11T08:40:31.453Z,3.73
2019-03-11T08:43:01.759Z,4.60
2019-03-11T08:45:32.118Z,4.07
2019-03-11T08:48:02.215Z,5.23
2019-03-11T08:50:32.227Z,4.33
2019-03-11T08:53:02.810Z,4.00
2019-03-11T08:55:33.042Z,4.67
2019-03-11T08:58:03.536Z,6.37
2019-03-11T09:00:33.844Z,3.13
2019-03-11T09:03:04.072Z,4.80
2019-03-11T09:05:34.423Z,4.17
2019-03-11T09:08:04.916Z,4.97
2019-03-11T09:10:35.071Z,5.13
2019-03-11T09:13:05.576Z,4.30
2019-03-11T09:15:36.260Z,3.10
2019-03-11T09:18:06.812Z,5.50
2019-03-11T09:20:37.170Z,22.13
2019-03-11T09:23:07.308Z,9.90
2019-03-11T09:25:37.916Z,5.30
2019-03-11T09:28:08.406Z,4.27
2019-03-11T09:30:38.821Z,4.20
2019-03-11T09:33:09.391Z,3.03
2019-03-11T09:35:39.809Z,6.67
2019-03-11T09:38:10.087Z,5.63
2019-03-11T09:40:40.058Z,4.50
2019-03-11T09:43:10.211Z,4.73
2019-03-11T09:45:41.072Z,3.40
2019-03-11T09:48:11.519Z,5.23
2019-03-11T09:50:42.370Z,3.40
2019-03-11T09:53:12.678Z,3.37
2019-03-11T09:55:43.189Z,4.80
2019-03-11T09:58:13.620Z,3.42
2019-03-11T10:00:46.332Z,3.50
2019-03-11T10:03:16.797Z,3.27
2019-03-11T10:05:47.205Z,2.87
2019-03-11T10:08:17.393Z,4.10
2019-03-11T10:10:48.137Z,4.90
2019-03-11T10:13:18.684Z,4.50
2019-03-11T10:15:49.225Z,2.83
2019-03-11T10:18:19.439Z,2.83
2019-03-11T10:20:50.041Z,3.80
2019-03-11T10:23:28.407Z,13.27
2019-03-11T10:25:52.559Z,3.23
2019-03-11T10:28:22.907Z,3.60
2019-03-11T10:30:53.351Z,5.93
2019-03-11T10:33:23.963Z,48.87
2019-03-11T10:35:54.370Z,9.90
2019-03-11T10:38:24.904Z,14.03
2019-03-11T10:40:55.123Z,6.27
2019-03-11T10:43:25.395Z,5.03
2019-03-11T10:45:55.421Z,6.95
2019-03-11T10:48:36.293Z,6.90
2019-03-11T10:50:57.469Z,3.98
2019-03-11T10:53:27.425Z,4.08
2019-03-11T10:55:59.914Z,8.33
2019-03-11T10:58:30.046Z,13.00
2019-03-11T11:01:00.332Z,14.70
2019-03-11T11:03:30.992Z,7.17
2019-03-11T11:06:01.098Z,7.55
2019-03-11T11:08:31.759Z,12.95
2019-03-11T11:11:01.998Z,49.15
2019-03-11T11:13:32.349Z,58.95
2019-03-11T11:16:02.773Z,37.15
2019-03-11T11:18:33.001Z,14.53
2019-03-11T11:21:03.384Z,8.68
2019-03-11T11:23:33.510Z,10.38
2019-03-11T11:26:03.358Z,5.17
2019-03-11T11:28:33.632Z,7.62
2019-03-11T11:31:03.734Z,4.28
2019-03-11T11:33:34.106Z,4.00
2019-03-11T11:36:03.695Z,5.25
2019-03-11T11:38:33.449Z,4.33
2019-03-11T11:41:03.699Z,3.67
2019-03-11T11:43:34.129Z,5.30
2019-03-11T11:46:04.360Z,3.62
2019-03-11T11:48:34.473Z,3.72
2019-03-11T11:51:04.648Z,3.35
2019-03-11T11:53:35.043Z,3.05
2019-03-11T11:56:05.272Z,4.78
2019-03-11T11:58:35.486Z,4.42
2019-03-11T12:01:05.852Z,5.12
2019-03-11T12:03:38.861Z,4.62
2019-03-11T12:06:09.018Z,3.35
2019-03-11T12:08:39.487Z,4.00
2019-03-11T12:11:09.794Z,2.90
2019-03-11T12:13:40.506Z,3.67
2019-03-11T12:16:10.946Z,2.63
2019-03-11T12:18:41.316Z,2.97
2019-03-11T12:21:11.755Z,2.97
2019-03-11T12:23:46.205Z,4.50
2019-03-11T12:26:13.836Z,3.30
2019-03-11T12:28:47.301Z,4.43
2019-03-11T12:31:17.849Z,4.70
2019-03-11T12:33:48.384Z,4.40
2019-03-11T12:36:18.867Z,4.47
2019-03-11T12:38:49.319Z,3.90
2019-03-11T12:41:19.927Z,4.47
2019-03-11T12:43:50.673Z,4.83
2019-03-11T12:46:20.820Z,4.07
2019-03-11T12:48:51.596Z,3.93
2019-03-11T12:51:22.340Z,3.73
2019-03-11T12:53:52.453Z,4.77
2019-03-11T12:56:22.906Z,3.30
2019-03-11T12:58:53.366Z,5.87
2019-03-11T13:01:23.954Z,3.67
2019-03-11T13:03:54.612Z,5.80
2019-03-11T13:06:25.270Z,4.67
2019-03-11T13:08:55.684Z,4.73
2019-03-11T13:11:25.956Z,4.03
2019-03-11T13:13:56.482Z,4.43
2019-03-11T13:16:27.117Z,6.17
2019-03-11T13:18:59.753Z,6.57
2019-03-11T13:21:32.665Z,6.33
2019-03-11T13:24:03.347Z,13.37
2019-03-11T13:26:33.813Z,4.53
2019-03-11T13:29:04.383Z,4.77
2019-03-11T13:31:34.661Z,4.07
2019-03-11T13:34:04.944Z,4.50
2019-03-11T13:36:35.520Z,4.60
2019-03-11T13:39:07.748Z,4.33
2019-03-11T13:41:38.065Z,2.87
2019-03-11T13:44:08.964Z,9.27
2019-03-11T13:46:39.416Z,6.27
2019-03-11T13:49:09.620Z,5.90
2019-03-11T13:51:39.812Z,5.67
2019-03-11T13:54:10.027Z,9.40
2019-03-11T13:56:40.426Z,12.23
2019-03-11T13:59:11.307Z,12.60
2019-03-11T14:01:41.758Z,7.67
2019-03-11T14:04:12.308Z,6.37
2019-03-11T14:06:42.738Z,4.70
2019-03-11T14:09:13.621Z,5.67
2019-03-11T14:11:43.948Z,4.13
2019-03-11T14:14:14.451Z,7.23
2019-03-11T14:16:44.788Z,6.17
2019-03-11T14:19:15.373Z,7.87
2019-03-11T14:21:45.646Z,7.10
2019-03-11T14:24:16.055Z,8.23
2019-03-11T14:26:46.433Z,5.97
2019-03-11T14:29:16.951Z,5.30
2019-03-11T14:31:47.269Z,7.63
2019-03-11T14:34:18.183Z,9.57
2019-03-11T14:36:48.716Z,13.30
2019-03-11T14:39:18.950Z,7.37
2019-03-11T14:41:49.522Z,9.10
2019-03-11T14:44:19.611Z,7.20
2019-03-11T14:46:50.156Z,7.00
2019-03-11T14:49:20.388Z,9.47
2019-03-11T14:51:50.609Z,8.13
2019-03-11T14:54:20.553Z,5.83
2019-03-11T14:56:50.691Z,7.40
2019-03-11T14:59:21.103Z,8.37
2019-03-11T15:01:51.483Z,7.70
2019-03-11T15:04:22.065Z,9.63
2019-03-11T15:06:52.844Z,5.23
2019-03-11T15:09:23.432Z,11.00
2019-03-11T15:11:53.666Z,12.07
2019-03-11T15:14:24.168Z,9.93
2019-03-11T15:16:54.573Z,8.40
2019-03-11T15:19:24.980Z,11.53
2019-03-11T15:21:55.276Z,12.57
2019-03-11T15:24:25.923Z,19.00
2019-03-11T15:26:56.135Z,19.07
2019-03-11T15:29:26.310Z,19.40
2019-03-11T15:31:57.637Z,17.10
2019-03-11T15:34:28.243Z,12.43
2019-03-11T15:36:58.403Z,11.17
2019-03-11T15:39:28.733Z,8.70
2019-03-11T15:41:59.255Z,12.93
2019-03-11T15:44:29.591Z,31.20
2019-03-11T15:46:59.894Z,15.63
2019-03-11T15:49:30.033Z,16.87
2019-03-11T15:52:00.510Z,19.20
2019-03-11T15:54:30.961Z,12.93
2019-03-11T15:57:01.007Z,16.83
2019-03-11T15:59:31.474Z,15.83
2019-03-11T16:02:01.915Z,16.13
2019-03-11T16:04:32.469Z,16.43
2019-03-11T16:07:02.740Z,20.07
2019-03-11T16:09:32.873Z,29.57
2019-03-11T16:12:03.201Z,39.53
2019-03-11T16:14:33.815Z,18.10
2019-03-11T16:17:04.520Z,10.27
2019-03-11T16:19:34.980Z,11.40
2019-03-11T16:22:05.483Z,8.77
2019-03-11T16:24:35.742Z,14.13
2019-03-11T16:27:06.201Z,25.57
2019-03-11T16:29:36.890Z,35.57
2019-03-11T16:32:07.515Z,61.20
2019-03-11T16:34:37.727Z,19.10
2019-03-11T16:37:08.291Z,15.73
2019-03-11T16:39:38.193Z,6.20
2019-03-11T16:42:08.638Z,5.87
2019-03-11T16:44:38.917Z,7.43
2019-03-11T16:47:09.027Z,7.10
2019-03-11T16:49:39.358Z,6.53
2019-03-11T16:52:09.722Z,7.63
2019-03-11T16:54:39.801Z,7.10
2019-03-11T16:57:10.629Z,9.07
2019-03-11T16:59:40.835Z,7.53
2019-03-11T17:02:11.277Z,7.00
2019-03-11T17:04:41.576Z,8.63
2019-03-11T17:07:12.855Z,9.23
2019-03-11T17:09:43.279Z,11.53
2019-03-11T17:12:13.381Z,9.80
2019-03-11T17:14:43.388Z,8.50
2019-03-11T17:17:15.300Z,8.87
2019-03-11T17:19:45.773Z,12.83
2019-03-11T17:22:16.332Z,10.30
2019-03-11T17:24:46.763Z,11.10
2019-03-11T17:27:17.224Z,11.73
2019-03-11T17:29:47.154Z,11.33
2019-03-11T17:32:17.800Z,8.93
2019-03-11T17:34:48.313Z,10.80
2019-03-11T17:37:18.734Z,9.77
2019-03-11T17:39:49.241Z,12.60
2019-03-11T17:42:19.481Z,6.77
2019-03-11T17:44:49.999Z,10.03
2019-03-11T17:47:23.029Z,5.70
2019-03-11T17:49:54.369Z,7.60
2019-03-11T17:52:25.000Z,4.17
2019-03-11T17:54:55.332Z,4.37
2019-03-11T17:57:25.746Z,4.50
2019-03-11T17:59:56.280Z,5.33
2019-03-11T18:02:26.632Z,5.23
2019-03-11T18:04:56.905Z,5.37
2019-03-11T18:07:27.067Z,3.83
2019-03-11T18:09:58.113Z,3.20
2019-03-11T18:12:28.060Z,3.50
2019-03-11T18:14:57.980Z,3.90
2019-03-11T18:17:28.429Z,3.57
2019-03-11T18:19:58.425Z,3.73
2019-03-11T18:22:28.871Z,4.73
2019-03-11T18:24:59.297Z,5.73
2019-03-11T18:27:29.751Z,7.93
2019-03-11T18:30:00.036Z,7.57
2019-03-11T18:32:30.390Z,7.57
2019-03-11T18:35:00.901Z,4.43
2019-03-11T18:37:31.147Z,7.33
2019-03-11T18:40:03.782Z,10.33
2019-03-11T18:42:34.175Z,11.60
2019-03-11T18:45:04.578Z,6.80
2019-03-11T18:47:35.117Z,11.33
2019-03-11T18:50:06.132Z,6.70
2019-03-11T18:52:36.208Z,7.53
2019-03-11T18:55:07.006Z,6.17
2019-03-11T18:57:40.474Z,7.60
2019-03-11T19:00:12.330Z,10.20
2019-03-11T19:02:45.119Z,7.00
2019-03-11T19:05:16.248Z,8.43
2019-03-11T19:07:46.844Z,7.83
2019-03-11T19:10:17.494Z,10.83
2019-03-11T19:12:47.438Z,8.90
2019-03-11T19:15:18.237Z,10.03
2019-03-11T19:17:48.599Z,8.10
2019-03-11T19:20:19.519Z,7.43
2019-03-11T19:22:50.228Z,7.93
2019-03-11T19:25:20.341Z,6.47
2019-03-11T19:27:50.750Z,8.33
2019-03-11T19:30:24.213Z,6.70
2019-03-11T19:32:56.075Z,6.50
2019-03-11T19:35:26.808Z,7.00
2019-03-11T19:37:57.408Z,5.40
2019-03-11T19:40:27.634Z,4.40
2019-03-11T19:42:58.362Z,6.10
2019-03-11T19:45:28.621Z,8.47
2019-03-11T19:47:59.070Z,5.27
2019-03-11T19:50:30.738Z,6.57
2019-03-11T19:53:01.182Z,6.07
2019-03-11T19:55:31.647Z,7.20
2019-03-11T19:58:02.281Z,7.00
2019-03-11T20:00:32.866Z,4.57
2019-03-11T20:03:03.347Z,6.63
2019-03-11T20:05:33.956Z,8.60
2019-03-11T20:08:04.817Z,19.17
2019-03-11T20:10:35.650Z,16.33
2019-03-11T20:13:06.313Z,13.40
2019-03-11T20:15:38.211Z,15.53
2019-03-11T20:18:08.782Z,12.60
2019-03-11T20:20:39.948Z,11.83
2019-03-11T20:23:10.292Z,11.47
2019-03-11T20:25:40.739Z,10.43
2019-03-11T20:28:11.213Z,10.17
2019-03-11T20:30:41.496Z,10.77
2019-03-11T20:33:14.203Z,12.10
2019-03-11T20:35:44.746Z,12.27
2019-03-11T20:38:15.098Z,10.63
2019-03-11T20:40:45.572Z,8.40
2019-03-11T20:43:15.463Z,8.23
2019-03-11T20:45:46.001Z,10.87
2019-03-11T20:48:18.821Z,9.97
2019-03-11T20:50:51.502Z,12.00
2019-03-11T20:53:22.140Z,7.63
2019-03-11T20:55:52.913Z,10.03
2019-03-11T20:58:23.534Z,10.40
2019-03-11T21:00:53.916Z,10.70
2019-03-11T21:03:24.514Z,10.77
2019-03-11T21:05:55.328Z,10.03
2019-03-11T21:08:25.787Z,7.97
2019-03-11T21:10:56.455Z,8.43
2019-03-11T21:13:26.699Z,9.20
2019-03-11T21:15:57.182Z,9.43
2019-03-11T21:18:27.593Z,9.30
2019-03-11T21:21:04.705Z,7.80
2019-03-11T21:23:29.245Z,8.23
2019-03-11T21:26:02.183Z,9.30
2019-03-11T21:28:32.821Z,7.40
2019-03-11T21:31:03.441Z,8.53
2019-03-11T21:33:36.517Z,9.30
2019-03-11T21:36:07.039Z,7.80
2019-03-11T21:38:37.809Z,8.43
2019-03-11T21:41:08.169Z,9.83
2019-03-11T21:43:38.892Z,10.63
2019-03-11T21:46:08.629Z,12.17
2019-03-11T21:48:39.248Z,7.67
2019-03-11T21:51:09.354Z,9.33
2019-03-11T21:53:39.813Z,9.60
2019-03-11T21:56:10.417Z,7.60
2019-03-11T21:58:40.946Z,9.03
2019-03-11T22:01:13.826Z,7.03
2019-03-11T22:03:44.164Z,10.27
2019-03-11T22:06:14.131Z,9.90
2019-03-11T22:08:44.575Z,8.73
2019-03-11T22:11:14.891Z,8.60
2019-03-11T22:13:45.360Z,8.37
2019-03-11T22:16:15.806Z,9.83
2019-03-11T22:18:45.872Z,7.83
2019-03-11T22:21:16.383Z,8.03
2019-03-11T22:23:47.058Z,9.47
2019-03-11T22:26:17.559Z,8.63
2019-03-11T22:28:48.061Z,10.83
2019-03-11T22:31:20.854Z,7.93
2019-03-11T22:33:51.211Z,8.03
2019-03-11T22:36:21.741Z,10.40
2019-03-11T22:38:52.188Z,10.90
2019-03-11T22:41:22.784Z,10.50
2019-03-11T22:43:53.390Z,10.20
2019-03-11T22:46:23.937Z,8.63
2019-03-11T22:48:54.147Z,8.60
2019-03-11T22:51:24.636Z,8.17
2019-03-11T22:53:55.013Z,10.30
2019-03-11T22:56:25.545Z,9.57
2019-03-11T22:58:55.894Z,10.07
2019-03-11T23:01:26.591Z,9.57
2019-03-11T23:03:58.659Z,8.30
2019-03-11T23:06:29.092Z,7.97
2019-03-11T23:08:59.686Z,10.57
2019-03-11T23:11:29.694Z,9.13
2019-03-11T23:14:00.103Z,6.73
2019-03-11T23:16:30.520Z,7.90
2019-03-11T23:19:01.115Z,7.10
2019-03-11T23:21:31.495Z,9.23
2019-03-11T23:24:01.954Z,7.90
2019-03-11T23:26:34.704Z,8.17
2019-03-11T23:29:05.243Z,7.73
2019-03-11T23:31:35.719Z,8.33
2019-03-11T23:34:06.005Z,6.77
2019-03-11T23:36:36.397Z,7.93
2019-03-11T23:39:08.615Z,7.10
2019-03-11T23:41:39.244Z,8.00
2019-03-11T23:44:09.660Z,7.77
2019-03-11T23:46:39.983Z,7.20
2019-03-11T23:49:10.505Z,10.50
2019-03-11T23:51:41.018Z,6.63
2019-03-11T23:54:11.674Z,6.93
2019-03-11T23:56:42.266Z,7.37
2019-03-11T23:59:13.041Z,7.03
